sensor_id;sensor_type;location;lat;lon;timestamp;P1;durP1;ratioP1;P2;durP2;ratioP2
73276;SDS011;61501;43.316;5.372;2022-12-07T00:06:20;18.42;;;12.07;;
73276;SDS011;61501;43.316;5.372;2022-12-07T00:08:47;19.23;;;14.18;;
73276;SDS011;61501;43.316;5.372;2022-12-07T00:11:14;18.98;;;14.50;;
73276;SDS011;61501;43.316;5.372;2022-12-07T00:13:41;17.08;;;14.30;;
73276;SDS011;61501;43.316;5.372;2022-12-07T00:16:09;17.60;;;14.57;;
73276;SDS011;61501;43.316;5.372;2022-12-07T00:18:36;16.73;;;15.02;;
73276;SDS011;61501;43.316;5.372;2022-12-07T00:21:07;17.15;;;13.85;;
73276;SDS011;61501;43.316;5.372;2022-12-07T00:23:33;17.40;;;14.63;;
73276;SDS011;61501;43.316;5.372;2022-12-07T00:26:06;17.65;;;15.55;;
73276;SDS011;61501;43.316;5.372;2022-12-07T00:28:35;17.20;;;15.13;;
73276;SDS011;61501;43.316;5.372;2022-12-07T00:31:02;16.35;;;14.60;;
73276;SDS011;61501;43.316;5.372;2022-12-07T00:33:28;14.82;;;13.10;;
73276;SDS011;61501;43.316;5.372;2022-12-07T00:35:57;16.02;;;14.15;;
73276;SDS011;61501;43.316;5.372;2022-12-07T00:38:33;16.73;;;12.70;;
73276;SDS011;61501;43.316;5.372;2022-12-07T00:41:02;14.05;;;11.73;;
73276;SDS011;61501;43.316;5.372;2022-12-07T00:43:28;12.50;;;10.40;;
73276;SDS011;61501;43.316;5.372;2022-12-07T00:45:54;12.25;;;10.95;;
73276;SDS011;61501;43.316;5.372;2022-12-07T00:48:21;12.35;;;10.75;;
73276;SDS011;61501;43.316;5.372;2022-12-07T00:50:47;22.15;;;19.95;;
73276;SDS011;61501;43.316;5.372;2022-12-07T00:53:13;18.85;;;16.92;;
73276;SDS011;61501;43.316;5.372;2022-12-07T00:55:39;13.65;;;10.43;;
73276;SDS011;61501;43.316;5.372;2022-12-07T00:58:05;11.30;;;10.20;;
73276;SDS011;61501;43.316;5.372;2022-12-07T01:00:31;12.77;;;10.75;;
73276;SDS011;61501;43.316;5.372;2022-12-07T01:02:58;13.32;;;10.68;;
73276;SDS011;61501;43.316;5.372;2022-12-07T01:05:24;15.02;;;11.15;;
73276;SDS011;61501;43.316;5.372;2022-12-07T01:07:50;13.15;;;11.40;;
73276;SDS011;61501;43.316;5.372;2022-12-07T01:10:16;13.45;;;11.23;;
73276;SDS011;61501;43.316;5.372;2022-12-07T01:12:42;16.45;;;11.35;;
73276;SDS011;61501;43.316;5.372;2022-12-07T01:15:08;14.02;;;12.00;;
73276;SDS011;61501;43.316;5.372;2022-12-07T01:17:34;13.38;;;11.98;;
73276;SDS011;61501;43.316;5.372;2022-12-07T01:20:01;14.82;;;12.55;;
73276;SDS011;61501;43.316;5.372;2022-12-07T01:22:27;13.32;;;11.93;;
73276;SDS011;61501;43.316;5.372;2022-12-07T01:24:53;15.00;;;12.27;;
73276;SDS011;61501;43.316;5.372;2022-12-07T01:27:19;14.15;;;12.75;;
73276;SDS011;61501;43.316;5.372;2022-12-07T01:29:45;14.48;;;12.98;;
73276;SDS011;61501;43.316;5.372;2022-12-07T01:32:11;15.00;;;13.52;;
73276;SDS011;61501;43.316;5.372;2022-12-07T01:34:37;15.40;;;13.70;;
73276;SDS011;61501;43.316;5.372;2022-12-07T01:37:03;14.63;;;13.00;;
73276;SDS011;61501;43.316;5.372;2022-12-07T01:39:29;13.90;;;12.50;;
73276;SDS011;61501;43.316;5.372;2022-12-07T01:41:55;14.23;;;12.73;;
73276;SDS011;61501;43.316;5.372;2022-12-07T01:44:26;15.13;;;13.63;;
73276;SDS011;61501;43.316;5.372;2022-12-07T01:46:55;14.70;;;13.20;;
73276;SDS011;61501;43.316;5.372;2022-12-07T01:51:47;15.00;;;12.68;;
73276;SDS011;61501;43.316;5.372;2022-12-07T01:54:14;16.83;;;12.93;;
73276;SDS011;61501;43.316;5.372;2022-12-07T01:56:42;14.32;;;12.82;;
73276;SDS011;61501;43.316;5.372;2022-12-07T01:59:11;13.10;;;11.63;;
73276;SDS011;61501;43.316;5.372;2022-12-07T02:01:37;13.98;;;12.50;;
73276;SDS011;61501;43.316;5.372;2022-12-07T02:04:03;12.23;;;10.90;;
73276;SDS011;61501;43.316;5.372;2022-12-07T02:06:30;13.75;;;11.70;;
73276;SDS011;61501;43.316;5.372;2022-12-07T02:08:56;15.00;;;12.10;;
73276;SDS011;61501;43.316;5.372;2022-12-07T02:11:22;13.65;;;12.25;;
73276;SDS011;61501;43.316;5.372;2022-12-07T02:13:48;11.93;;;10.68;;
73276;SDS011;61501;43.316;5.372;2022-12-07T02:21:59;12.45;;;10.93;;
73276;SDS011;61501;43.316;5.372;2022-12-07T02:32:08;13.82;;;11.35;;
73276;SDS011;61501;43.316;5.372;2022-12-07T02:37:29;15.02;;;11.07;;
73276;SDS011;61501;43.316;5.372;2022-12-07T02:40:01;13.98;;;12.30;;
73276;SDS011;61501;43.316;5.372;2022-12-07T02:42:34;13.25;;;11.80;;
73276;SDS011;61501;43.316;5.372;2022-12-07T02:45:02;15.45;;;12.65;;
73276;SDS011;61501;43.316;5.372;2022-12-07T02:47:28;15.30;;;11.52;;
73276;SDS011;61501;43.316;5.372;2022-12-07T02:49:55;13.27;;;11.95;;
73276;SDS011;61501;43.316;5.372;2022-12-07T02:52:21;13.68;;;12.10;;
73276;SDS011;61501;43.316;5.372;2022-12-07T02:54:47;12.20;;;11.05;;
73276;SDS011;61501;43.316;5.372;2022-12-07T03:14:40;13.38;;;11.98;;
73276;SDS011;61501;43.316;5.372;2022-12-07T03:17:12;13.48;;;12.10;;
73276;SDS011;61501;43.316;5.372;2022-12-07T03:19:40;14.70;;;13.20;;
73276;SDS011;61501;43.316;5.372;2022-12-07T03:22:10;13.05;;;11.75;;
73276;SDS011;61501;43.316;5.372;2022-12-07T03:24:39;12.30;;;11.25;;
73276;SDS011;61501;43.316;5.372;2022-12-07T03:27:09;13.25;;;11.93;;
73276;SDS011;61501;43.316;5.372;2022-12-07T03:44:56;11.52;;;9.65;;
73276;SDS011;61501;43.316;5.372;2022-12-07T04:05:18;10.45;;;8.63;;
73276;SDS011;61501;43.316;5.372;2022-12-07T04:07:44;10.38;;;9.13;;
73276;SDS011;61501;43.316;5.372;2022-12-07T04:10:10;12.07;;;9.50;;
73276;SDS011;61501;43.316;5.372;2022-12-07T04:12:36;11.90;;;10.70;;
73276;SDS011;61501;43.316;5.372;2022-12-07T04:15:02;12.90;;;11.43;;
73276;SDS011;61501;43.316;5.372;2022-12-07T04:17:29;13.07;;;10.48;;
73276;SDS011;61501;43.316;5.372;2022-12-07T04:19:55;12.68;;;11.40;;
73276;SDS011;61501;43.316;5.372;2022-12-07T04:22:21;11.18;;;10.18;;
73276;SDS011;61501;43.316;5.372;2022-12-07T04:24:47;12.30;;;10.65;;
73276;SDS011;61501;43.316;5.372;2022-12-07T04:27:13;11.02;;;9.93;;
73276;SDS011;61501;43.316;5.372;2022-12-07T04:29:39;11.70;;;10.60;;
73276;SDS011;61501;43.316;5.372;2022-12-07T04:32:05;10.65;;;9.70;;
73276;SDS011;61501;43.316;5.372;2022-12-07T04:34:31;11.23;;;10.02;;
73276;SDS011;61501;43.316;5.372;2022-12-07T04:36:57;9.77;;;8.88;;
73276;SDS011;61501;43.316;5.372;2022-12-07T04:39:30;9.70;;;8.80;;
73276;SDS011;61501;43.316;5.372;2022-12-07T04:41:56;10.38;;;9.32;;
73276;SDS011;61501;43.316;5.372;2022-12-07T04:44:23;12.95;;;11.63;;
73276;SDS011;61501;43.316;5.372;2022-12-07T04:46:50;13.18;;;11.85;;
73276;SDS011;61501;43.316;5.372;2022-12-07T04:49:16;13.18;;;11.95;;
73276;SDS011;61501;43.316;5.372;2022-12-07T04:51:43;14.77;;;13.25;;
73276;SDS011;61501;43.316;5.372;2022-12-07T04:54:09;14.13;;;12.82;;
73276;SDS011;61501;43.316;5.372;2022-12-07T04:56:35;13.73;;;12.50;;
73276;SDS011;61501;43.316;5.372;2022-12-07T04:59:02;13.98;;;12.60;;
73276;SDS011;61501;43.316;5.372;2022-12-07T05:07:10;12.48;;;11.25;;
73276;SDS011;61501;43.316;5.372;2022-12-07T05:09:36;12.63;;;11.43;;
73276;SDS011;61501;43.316;5.372;2022-12-07T05:12:02;12.68;;;11.57;;
73276;SDS011;61501;43.316;5.372;2022-12-07T05:14:28;11.98;;;10.98;;
73276;SDS011;61501;43.316;5.372;2022-12-07T05:16:54;13.05;;;11.57;;
73276;SDS011;61501;43.316;5.372;2022-12-07T05:19:20;14.18;;;12.88;;
73276;SDS011;61501;43.316;5.372;2022-12-07T05:21:46;12.45;;;11.25;;
73276;SDS011;61501;43.316;5.372;2022-12-07T05:24:14;13.68;;;12.27;;
73276;SDS011;61501;43.316;5.372;2022-12-07T05:29:11;12.65;;;11.50;;
73276;SDS011;61501;43.316;5.372;2022-12-07T05:31:37;13.52;;;12.32;;
73276;SDS011;61501;43.316;5.372;2022-12-07T05:34:03;13.50;;;12.13;;
73276;SDS011;61501;43.316;5.372;2022-12-07T05:36:29;13.23;;;12.05;;
73276;SDS011;61501;43.316;5.372;2022-12-07T05:38:56;14.45;;;11.93;;
73276;SDS011;61501;43.316;5.372;2022-12-07T05:41:23;13.52;;;12.30;;
73276;SDS011;61501;43.316;5.372;2022-12-07T05:44:07;13.77;;;12.48;;
73276;SDS011;61501;43.316;5.372;2022-12-07T05:46:34;14.15;;;12.60;;
73276;SDS011;61501;43.316;5.372;2022-12-07T05:49:00;14.25;;;12.90;;
73276;SDS011;61501;43.316;5.372;2022-12-07T05:51:26;14.05;;;12.65;;
73276;SDS011;61501;43.316;5.372;2022-12-07T05:53:52;13.68;;;12.32;;
73276;SDS011;61501;43.316;5.372;2022-12-07T05:56:19;13.70;;;12.40;;
73276;SDS011;61501;43.316;5.372;2022-12-07T05:58:45;14.65;;;12.15;;
73276;SDS011;61501;43.316;5.372;2022-12-07T06:01:30;13.30;;;11.60;;
73276;SDS011;61501;43.316;5.372;2022-12-07T06:03:56;12.90;;;11.63;;
73276;SDS011;61501;43.316;5.372;2022-12-07T06:06:23;14.00;;;12.60;;
73276;SDS011;61501;43.316;5.372;2022-12-07T06:08:49;15.23;;;12.63;;
73276;SDS011;61501;43.316;5.372;2022-12-07T06:11:15;16.05;;;12.93;;
73276;SDS011;61501;43.316;5.372;2022-12-07T06:14:00;16.20;;;13.23;;
73276;SDS011;61501;43.316;5.372;2022-12-07T06:16:26;16.13;;;13.85;;
73276;SDS011;61501;43.316;5.372;2022-12-07T06:18:52;14.93;;;13.50;;
73276;SDS011;61501;43.316;5.372;2022-12-07T06:21:18;13.45;;;11.55;;
73276;SDS011;61501;43.316;5.372;2022-12-07T06:23:44;14.85;;;11.60;;
73276;SDS011;61501;43.316;5.372;2022-12-07T06:26:10;11.75;;;10.63;;
73276;SDS011;61501;43.316;5.372;2022-12-07T06:28:36;12.30;;;11.10;;
73276;SDS011;61501;43.316;5.372;2022-12-07T06:31:02;12.82;;;11.63;;
73276;SDS011;61501;43.316;5.372;2022-12-07T06:33:28;12.02;;;10.75;;
73276;SDS011;61501;43.316;5.372;2022-12-07T06:35:54;12.60;;;11.40;;
73276;SDS011;61501;43.316;5.372;2022-12-07T06:38:21;12.63;;;11.38;;
73276;SDS011;61501;43.316;5.372;2022-12-07T06:40:47;11.95;;;10.85;;
73276;SDS011;61501;43.316;5.372;2022-12-07T06:43:13;15.48;;;11.45;;
73276;SDS011;61501;43.316;5.372;2022-12-07T06:45:40;12.73;;;11.55;;
73276;SDS011;61501;43.316;5.372;2022-12-07T06:48:06;13.23;;;12.00;;
73276;SDS011;61501;43.316;5.372;2022-12-07T06:50:32;12.55;;;11.27;;
73276;SDS011;61501;43.316;5.372;2022-12-07T06:52:58;12.98;;;11.82;;
73276;SDS011;61501;43.316;5.372;2022-12-07T06:55:24;12.20;;;11.10;;
73276;SDS011;61501;43.316;5.372;2022-12-07T06:57:50;12.80;;;11.70;;
73276;SDS011;61501;43.316;5.372;2022-12-07T07:00:17;12.93;;;11.73;;
73276;SDS011;61501;43.316;5.372;2022-12-07T07:02:43;15.30;;;11.95;;
73276;SDS011;61501;43.316;5.372;2022-12-07T07:05:09;12.32;;;11.13;;
73276;SDS011;61501;43.316;5.372;2022-12-07T07:07:35;12.90;;;11.70;;
73276;SDS011;61501;43.316;5.372;2022-12-07T07:10:01;13.63;;;12.43;;
73276;SDS011;61501;43.316;5.372;2022-12-07T07:12:27;12.95;;;11.75;;
73276;SDS011;61501;43.316;5.372;2022-12-07T07:14:53;13.20;;;11.93;;
73276;SDS011;61501;43.316;5.372;2022-12-07T07:17:19;13.77;;;12.38;;
73276;SDS011;61501;43.316;5.372;2022-12-07T07:19:46;14.88;;;13.48;;
73276;SDS011;61501;43.316;5.372;2022-12-07T07:22:12;13.43;;;12.23;;
73276;SDS011;61501;43.316;5.372;2022-12-07T07:24:38;13.30;;;12.00;;
73276;SDS011;61501;43.316;5.372;2022-12-07T07:27:04;13.23;;;12.02;;
73276;SDS011;61501;43.316;5.372;2022-12-07T07:29:30;13.35;;;11.95;;
73276;SDS011;61501;43.316;5.372;2022-12-07T07:31:56;13.20;;;12.00;;
73276;SDS011;61501;43.316;5.372;2022-12-07T07:34:22;13.32;;;12.02;;
73276;SDS011;61501;43.316;5.372;2022-12-07T07:36:48;13.10;;;11.80;;
73276;SDS011;61501;43.316;5.372;2022-12-07T07:39:14;13.93;;;12.52;;
73276;SDS011;61501;43.316;5.372;2022-12-07T07:41:40;13.95;;;12.65;;
73276;SDS011;61501;43.316;5.372;2022-12-07T07:44:06;13.88;;;12.60;;
73276;SDS011;61501;43.316;5.372;2022-12-07T07:46:32;14.02;;;12.73;;
73276;SDS011;61501;43.316;5.372;2022-12-07T07:48:58;13.52;;;12.25;;
73276;SDS011;61501;43.316;5.372;2022-12-07T07:51:24;14.27;;;12.45;;
73276;SDS011;61501;43.316;5.372;2022-12-07T07:53:50;13.93;;;12.63;;
73276;SDS011;61501;43.316;5.372;2022-12-07T07:56:16;15.15;;;13.35;;
73276;SDS011;61501;43.316;5.372;2022-12-07T07:58:42;15.25;;;13.80;;
73276;SDS011;61501;43.316;5.372;2022-12-07T08:01:08;15.25;;;13.70;;
73276;SDS011;61501;43.316;5.372;2022-12-07T08:03:34;15.10;;;13.60;;
73276;SDS011;61501;43.316;5.372;2022-12-07T08:06:02;14.90;;;13.55;;
73276;SDS011;61501;43.316;5.372;2022-12-07T08:08:28;15.30;;;13.90;;
73276;SDS011;61501;43.316;5.372;2022-12-07T08:10:54;14.25;;;13.00;;
73276;SDS011;61501;43.316;5.372;2022-12-07T08:13:20;14.23;;;12.77;;
73276;SDS011;61501;43.316;5.372;2022-12-07T08:15:47;14.32;;;13.02;;
73276;SDS011;61501;43.316;5.372;2022-12-07T08:18:13;14.80;;;13.40;;
73276;SDS011;61501;43.316;5.372;2022-12-07T08:20:40;14.27;;;13.02;;
73276;SDS011;61501;43.316;5.372;2022-12-07T08:23:06;14.73;;;13.32;;
73276;SDS011;61501;43.316;5.372;2022-12-07T08:25:32;15.23;;;13.88;;
73276;SDS011;61501;43.316;5.372;2022-12-07T08:27:59;16.40;;;14.55;;
73276;SDS011;61501;43.316;5.372;2022-12-07T08:30:34;14.70;;;13.30;;
73276;SDS011;61501;43.316;5.372;2022-12-07T08:33:03;15.40;;;13.82;;
73276;SDS011;61501;43.316;5.372;2022-12-07T08:35:29;14.20;;;12.88;;
73276;SDS011;61501;43.316;5.372;2022-12-07T08:37:55;14.93;;;13.40;;
73276;SDS011;61501;43.316;5.372;2022-12-07T08:40:22;14.13;;;12.82;;
73276;SDS011;61501;43.316;5.372;2022-12-07T08:42:49;14.65;;;13.30;;
73276;SDS011;61501;43.316;5.372;2022-12-07T08:45:15;14.13;;;12.75;;
73276;SDS011;61501;43.316;5.372;2022-12-07T08:47:54;13.45;;;12.25;;
73276;SDS011;61501;43.316;5.372;2022-12-07T08:50:21;15.85;;;14.45;;
73276;SDS011;61501;43.316;5.372;2022-12-07T08:52:56;15.07;;;13.68;;
73276;SDS011;61501;43.316;5.372;2022-12-07T08:55:24;14.57;;;13.13;;
73276;SDS011;61501;43.316;5.372;2022-12-07T09:03:24;15.50;;;13.52;;
73276;SDS011;61501;43.316;5.372;2022-12-07T09:08:18;15.05;;;13.75;;
73276;SDS011;61501;43.316;5.372;2022-12-07T09:10:44;13.57;;;12.18;;
73276;SDS011;61501;43.316;5.372;2022-12-07T09:13:11;13.95;;;12.75;;
73276;SDS011;61501;43.316;5.372;2022-12-07T09:15:37;14.30;;;12.93;;
73276;SDS011;61501;43.316;5.372;2022-12-07T09:18:03;15.02;;;12.30;;
73276;SDS011;61501;43.316;5.372;2022-12-07T09:20:29;13.50;;;12.10;;
73276;SDS011;61501;43.316;5.372;2022-12-07T09:22:55;16.48;;;12.40;;
73276;SDS011;61501;43.316;5.372;2022-12-07T09:25:21;13.63;;;12.18;;
73276;SDS011;61501;43.316;5.372;2022-12-07T09:27:47;15.00;;;12.57;;
73276;SDS011;61501;43.316;5.372;2022-12-07T09:30:13;14.43;;;11.75;;
73276;SDS011;61501;43.316;5.372;2022-12-07T09:32:39;12.27;;;11.07;;
73276;SDS011;61501;43.316;5.372;2022-12-07T09:35:05;13.15;;;11.93;;
73276;SDS011;61501;43.316;5.372;2022-12-07T09:37:31;12.20;;;11.10;;
73276;SDS011;61501;43.316;5.372;2022-12-07T09:40:01;12.60;;;11.30;;
73276;SDS011;61501;43.316;5.372;2022-12-07T09:42:28;13.45;;;12.25;;
73276;SDS011;61501;43.316;5.372;2022-12-07T09:44:55;12.40;;;11.20;;
73276;SDS011;61501;43.316;5.372;2022-12-07T09:47:21;15.65;;;12.75;;
73276;SDS011;61501;43.316;5.372;2022-12-07T09:49:48;12.80;;;11.68;;
73276;SDS011;61501;43.316;5.372;2022-12-07T09:54:44;13.75;;;11.65;;
73276;SDS011;61501;43.316;5.372;2022-12-07T09:57:11;11.65;;;10.15;;
73276;SDS011;61501;43.316;5.372;2022-12-07T09:59:37;12.70;;;11.40;;
73276;SDS011;61501;43.316;5.372;2022-12-07T10:04:48;15.32;;;11.77;;
73276;SDS011;61501;43.316;5.372;2022-12-07T10:07:14;12.00;;;10.98;;
73276;SDS011;61501;43.316;5.372;2022-12-07T10:09:41;11.52;;;10.52;;
73276;SDS011;61501;43.316;5.372;2022-12-07T10:12:09;12.02;;;10.80;;
73276;SDS011;61501;43.316;5.372;2022-12-07T10:14:36;11.88;;;10.77;;
73276;SDS011;61501;43.316;5.372;2022-12-07T10:17:02;12.38;;;10.82;;
73276;SDS011;61501;43.316;5.372;2022-12-07T10:19:32;11.75;;;10.68;;
73276;SDS011;61501;43.316;5.372;2022-12-07T10:24:24;11.57;;;10.45;;
73276;SDS011;61501;43.316;5.372;2022-12-07T10:26:51;11.98;;;10.73;;
73276;SDS011;61501;43.316;5.372;2022-12-07T10:29:21;11.85;;;10.75;;
73276;SDS011;61501;43.316;5.372;2022-12-07T10:31:54;10.68;;;9.68;;
73276;SDS011;61501;43.316;5.372;2022-12-07T10:34:32;11.77;;;9.48;;
73276;SDS011;61501;43.316;5.372;2022-12-07T10:39:50;10.55;;;9.55;;
73276;SDS011;61501;43.316;5.372;2022-12-07T10:42:17;12.13;;;9.32;;
73276;SDS011;61501;43.316;5.372;2022-12-07T10:44:44;10.80;;;9.70;;
73276;SDS011;61501;43.316;5.372;2022-12-07T10:49:43;9.27;;;8.38;;
73276;SDS011;61501;43.316;5.372;2022-12-07T10:52:25;9.65;;;8.70;;
73276;SDS011;61501;43.316;5.372;2022-12-07T10:57:26;10.05;;;8.38;;
73276;SDS011;61501;43.316;5.372;2022-12-07T11:00:06;10.93;;;8.30;;
73276;SDS011;61501;43.316;5.372;2022-12-07T11:07:42;8.05;;;7.22;;
73276;SDS011;61501;43.316;5.372;2022-12-07T11:15:05;7.88;;;7.07;;
73276;SDS011;61501;43.316;5.372;2022-12-07T11:25:42;16.23;;;8.88;;
73276;SDS011;61501;43.316;5.372;2022-12-07T11:28:14;13.70;;;11.43;;
73276;SDS011;61501;43.316;5.372;2022-12-07T11:35:57;13.77;;;8.93;;
73276;SDS011;61501;43.316;5.372;2022-12-07T11:38:32;9.65;;;8.73;;
73276;SDS011;61501;43.316;5.372;2022-12-07T11:43:37;12.32;;;8.93;;
73276;SDS011;61501;43.316;5.372;2022-12-07T11:46:08;10.25;;;8.30;;
73276;SDS011;61501;43.316;5.372;2022-12-07T11:48:37;10.07;;;9.02;;
73276;SDS011;61501;43.316;5.372;2022-12-07T11:51:03;9.18;;;8.27;;
73276;SDS011;61501;43.316;5.372;2022-12-07T11:53:37;11.65;;;8.90;;
73276;SDS011;61501;43.316;5.372;2022-12-07T11:56:08;10.50;;;9.38;;
73276;SDS011;61501;43.316;5.372;2022-12-07T11:58:40;10.40;;;9.18;;
73276;SDS011;61501;43.316;5.372;2022-12-07T12:04:25;9.75;;;8.75;;
73276;SDS011;61501;43.316;5.372;2022-12-07T12:06:31;9.18;;;8.18;;
73276;SDS011;61501;43.316;5.372;2022-12-07T12:09:03;9.52;;;7.82;;
73276;SDS011;61501;43.316;5.372;2022-12-07T12:21:43;9.55;;;6.13;;
73276;SDS011;61501;43.316;5.372;2022-12-07T12:24:17;6.97;;;6.28;;
73276;SDS011;61501;43.316;5.372;2022-12-07T12:26:56;9.98;;;6.53;;
73276;SDS011;61501;43.316;5.372;2022-12-07T12:29:30;7.35;;;6.38;;
73276;SDS011;61501;43.316;5.372;2022-12-07T12:32:05;7.45;;;6.20;;
73276;SDS011;61501;43.316;5.372;2022-12-07T12:34:33;8.43;;;6.63;;
73276;SDS011;61501;43.316;5.372;2022-12-07T12:36:59;11.27;;;7.47;;
73276;SDS011;61501;43.316;5.372;2022-12-07T12:39:25;7.28;;;6.07;;
73276;SDS011;61501;43.316;5.372;2022-12-07T12:41:55;7.80;;;6.57;;
73276;SDS011;61501;43.316;5.372;2022-12-07T12:51:52;7.05;;;5.63;;
73276;SDS011;61501;43.316;5.372;2022-12-07T12:54:23;7.13;;;5.57;;
73276;SDS011;61501;43.316;5.372;2022-12-07T12:59:39;6.05;;;5.10;;
73276;SDS011;61501;43.316;5.372;2022-12-07T13:04:49;6.50;;;4.30;;
73276;SDS011;61501;43.316;5.372;2022-12-07T13:10:01;6.03;;;5.43;;
73276;SDS011;61501;43.316;5.372;2022-12-07T13:12:27;5.78;;;4.90;;
73276;SDS011;61501;43.316;5.372;2022-12-07T13:14:56;7.20;;;4.88;;
73276;SDS011;61501;43.316;5.372;2022-12-07T13:25:12;9.52;;;5.43;;
73276;SDS011;61501;43.316;5.372;2022-12-07T13:27:40;6.75;;;5.15;;
73276;SDS011;61501;43.316;5.372;2022-12-07T13:30:18;7.00;;;5.00;;
73276;SDS011;61501;43.316;5.372;2022-12-07T13:32:55;4.95;;;4.32;;
73276;SDS011;61501;43.316;5.372;2022-12-07T13:35:34;6.93;;;4.07;;
73276;SDS011;61501;43.316;5.372;2022-12-07T13:38:03;4.60;;;4.15;;
73276;SDS011;61501;43.316;5.372;2022-12-07T13:40:30;4.03;;;3.63;;
73276;SDS011;61501;43.316;5.372;2022-12-07T13:43:12;5.13;;;3.70;;
73276;SDS011;61501;43.316;5.372;2022-12-07T13:45:40;5.93;;;4.30;;
73276;SDS011;61501;43.316;5.372;2022-12-07T13:48:14;7.53;;;4.60;;
73276;SDS011;61501;43.316;5.372;2022-12-07T13:50:41;7.03;;;4.07;;
73276;SDS011;61501;43.316;5.372;2022-12-07T13:53:11;5.50;;;4.60;;
73276;SDS011;61501;43.316;5.372;2022-12-07T13:55:38;5.88;;;4.25;;
73276;SDS011;61501;43.316;5.372;2022-12-07T13:58:09;8.35;;;4.55;;
73276;SDS011;61501;43.316;5.372;2022-12-07T14:00:36;6.22;;;5.60;;
73276;SDS011;61501;43.316;5.372;2022-12-07T14:05:28;6.10;;;4.30;;
73276;SDS011;61501;43.316;5.372;2022-12-07T14:07:56;5.70;;;4.20;;
73276;SDS011;61501;43.316;5.372;2022-12-07T14:10:27;7.70;;;4.20;;
73276;SDS011;61501;43.316;5.372;2022-12-07T14:12:53;6.50;;;4.82;;
73276;SDS011;61501;43.316;5.372;2022-12-07T14:15:37;5.05;;;3.53;;
73276;SDS011;61501;43.316;5.372;2022-12-07T14:18:03;4.05;;;3.28;;
73276;SDS011;61501;43.316;5.372;2022-12-07T14:22:58;11.15;;;4.60;;
73276;SDS011;61501;43.316;5.372;2022-12-07T14:25:34;5.95;;;4.22;;
73276;SDS011;61501;43.316;5.372;2022-12-07T14:28:10;8.00;;;4.68;;
73276;SDS011;61501;43.316;5.372;2022-12-07T14:30:50;7.68;;;4.93;;
73276;SDS011;61501;43.316;5.372;2022-12-07T14:33:16;7.30;;;4.60;;
73276;SDS011;61501;43.316;5.372;2022-12-07T14:35:42;10.40;;;4.57;;
73276;SDS011;61501;43.316;5.372;2022-12-07T14:38:08;8.30;;;4.50;;
73276;SDS011;61501;43.316;5.372;2022-12-07T14:40:34;9.30;;;4.72;;
73276;SDS011;61501;43.316;5.372;2022-12-07T14:43:01;8.52;;;4.45;;
73276;SDS011;61501;43.316;5.372;2022-12-07T14:45:27;6.00;;;4.25;;
73276;SDS011;61501;43.316;5.372;2022-12-07T14:47:53;6.05;;;4.55;;
73276;SDS011;61501;43.316;5.372;2022-12-07T14:50:20;8.55;;;4.15;;
73276;SDS011;61501;43.316;5.372;2022-12-07T14:52:52;8.73;;;4.40;;
73276;SDS011;61501;43.316;5.372;2022-12-07T14:57:45;11.80;;;4.93;;
73276;SDS011;61501;43.316;5.372;2022-12-07T15:00:17;5.88;;;4.35;;
73276;SDS011;61501;43.316;5.372;2022-12-07T15:02:44;4.93;;;4.22;;
73276;SDS011;61501;43.316;5.372;2022-12-07T15:05:10;4.60;;;3.92;;
73276;SDS011;61501;43.316;5.372;2022-12-07T15:07:36;4.40;;;4.00;;
73276;SDS011;61501;43.316;5.372;2022-12-07T15:10:03;4.88;;;3.53;;
73276;SDS011;61501;43.316;5.372;2022-12-07T15:12:29;5.68;;;4.20;;
73276;SDS011;61501;43.316;5.372;2022-12-07T15:14:55;6.55;;;3.80;;
73276;SDS011;61501;43.316;5.372;2022-12-07T15:17:21;4.57;;;3.63;;
73276;SDS011;61501;43.316;5.372;2022-12-07T15:19:47;5.90;;;4.30;;
73276;SDS011;61501;43.316;5.372;2022-12-07T15:22:13;4.40;;;3.83;;
73276;SDS011;61501;43.316;5.372;2022-12-07T15:24:39;8.02;;;5.95;;
73276;SDS011;61501;43.316;5.372;2022-12-07T15:27:05;11.75;;;10.20;;
73276;SDS011;61501;43.316;5.372;2022-12-07T15:29:31;6.40;;;4.68;;
73276;SDS011;61501;43.316;5.372;2022-12-07T15:31:57;8.93;;;4.40;;
73276;SDS011;61501;43.316;5.372;2022-12-07T15:34:24;7.53;;;4.57;;
73276;SDS011;61501;43.316;5.372;2022-12-07T15:36:50;6.93;;;5.30;;
73276;SDS011;61501;43.316;5.372;2022-12-07T15:39:16;6.97;;;4.97;;
73276;SDS011;61501;43.316;5.372;2022-12-07T15:41:42;6.10;;;4.70;;
73276;SDS011;61501;43.316;5.372;2022-12-07T15:44:12;6.22;;;4.75;;
73276;SDS011;61501;43.316;5.372;2022-12-07T15:46:56;8.35;;;5.07;;
73276;SDS011;61501;43.316;5.372;2022-12-07T15:49:23;5.80;;;5.30;;
73276;SDS011;61501;43.316;5.372;2022-12-07T15:51:49;6.18;;;5.20;;
73276;SDS011;61501;43.316;5.372;2022-12-07T15:54:19;6.65;;;5.63;;
73276;SDS011;61501;43.316;5.372;2022-12-07T15:56:46;7.13;;;6.22;;
73276;SDS011;61501;43.316;5.372;2022-12-07T15:59:12;8.00;;;5.88;;
73276;SDS011;61501;43.316;5.372;2022-12-07T16:01:38;9.27;;;7.10;;
73276;SDS011;61501;43.316;5.372;2022-12-07T16:04:04;9.05;;;6.57;;
73276;SDS011;61501;43.316;5.372;2022-12-07T16:06:30;7.20;;;6.38;;
73276;SDS011;61501;43.316;5.372;2022-12-07T16:08:56;7.88;;;6.57;;
73276;SDS011;61501;43.316;5.372;2022-12-07T16:11:22;9.52;;;7.82;;
73276;SDS011;61501;43.316;5.372;2022-12-07T16:13:48;7.97;;;7.20;;
73276;SDS011;61501;43.316;5.372;2022-12-07T16:16:15;8.63;;;7.65;;
73276;SDS011;61501;43.316;5.372;2022-12-07T16:18:42;8.70;;;7.80;;
73276;SDS011;61501;43.316;5.372;2022-12-07T16:21:08;8.35;;;7.55;;
73276;SDS011;61501;43.316;5.372;2022-12-07T16:23:34;9.57;;;6.85;;
73276;SDS011;61501;43.316;5.372;2022-12-07T16:26:07;9.43;;;7.40;;
73276;SDS011;61501;43.316;5.372;2022-12-07T16:28:34;8.43;;;7.47;;
73276;SDS011;61501;43.316;5.372;2022-12-07T16:31:04;8.40;;;7.53;;
73276;SDS011;61501;43.316;5.372;2022-12-07T16:33:32;9.05;;;8.00;;
73276;SDS011;61501;43.316;5.372;2022-12-07T16:35:58;9.30;;;8.40;;
73276;SDS011;61501;43.316;5.372;2022-12-07T16:38:27;8.50;;;7.70;;
73276;SDS011;61501;43.316;5.372;2022-12-07T16:40:57;9.13;;;7.90;;
73276;SDS011;61501;43.316;5.372;2022-12-07T16:43:23;8.85;;;7.90;;
73276;SDS011;61501;43.316;5.372;2022-12-07T16:45:49;8.77;;;7.97;;
73276;SDS011;61501;43.316;5.372;2022-12-07T16:48:15;8.75;;;7.95;;
73276;SDS011;61501;43.316;5.372;2022-12-07T16:50:42;10.50;;;7.78;;
73276;SDS011;61501;43.316;5.372;2022-12-07T16:53:11;11.68;;;8.68;;
73276;SDS011;61501;43.316;5.372;2022-12-07T16:55:38;9.35;;;8.35;;
73276;SDS011;61501;43.316;5.372;2022-12-07T16:58:05;9.27;;;8.35;;
73276;SDS011;61501;43.316;5.372;2022-12-07T17:00:31;9.48;;;8.63;;
73276;SDS011;61501;43.316;5.372;2022-12-07T17:02:57;9.88;;;8.88;;
73276;SDS011;61501;43.316;5.372;2022-12-07T17:05:23;9.30;;;8.40;;
73276;SDS011;61501;43.316;5.372;2022-12-07T17:07:49;10.18;;;8.25;;
73276;SDS011;61501;43.316;5.372;2022-12-07T17:10:16;9.85;;;8.85;;
73276;SDS011;61501;43.316;5.372;2022-12-07T17:12:42;11.05;;;8.80;;
73276;SDS011;61501;43.316;5.372;2022-12-07T17:15:08;12.55;;;8.82;;
73276;SDS011;61501;43.316;5.372;2022-12-07T17:17:55;11.70;;;10.10;;
73276;SDS011;61501;43.316;5.372;2022-12-07T17:20:22;9.70;;;8.80;;
73276;SDS011;61501;43.316;5.372;2022-12-07T17:22:49;11.93;;;9.68;;
73276;SDS011;61501;43.316;5.372;2022-12-07T17:25:15;10.65;;;9.35;;
73276;SDS011;61501;43.316;5.372;2022-12-07T17:27:41;10.82;;;9.73;;
73276;SDS011;61501;43.316;5.372;2022-12-07T17:30:08;11.13;;;10.10;;